sensor_id;sensor_type;location;lat;lon;timestamp;temperature;humidity
14985;DHT22;7588;62.368;25.902;2022-11-13T00:01:31;5.70;99.90
14985;DHT22;7588;62.368;25.902;2022-11-13T00:03:57;5.70;99.90
14985;DHT22;7588;62.368;25.902;2022-11-13T00:06:23;5.60;99.90
14985;DHT22;7588;62.368;25.902;2022-11-13T00:08:52;5.50;99.90
14985;DHT22;7588;62.368;25.902;2022-11-13T00:11:20;5.40;99.90
14985;DHT22;7588;62.368;25.902;2022-11-13T00:13:46;5.50;99.90
14985;DHT22;7588;62.368;25.902;2022-11-13T00:16:18;5.50;99.90
14985;DHT22;7588;62.368;25.902;2022-11-13T00:18:44;5.50;99.90
14985;DHT22;7588;62.368;25.902;2022-11-13T00:21:17;5.50;99.90
14985;DHT22;7588;62.368;25.902;2022-11-13T00:23:44;5.50;99.90
14985;DHT22;7588;62.368;25.902;2022-11-13T00:28:40;5.50;99.90
14985;DHT22;7588;62.368;25.902;2022-11-13T00:31:07;5.50;99.90
14985;DHT22;7588;62.368;25.902;2022-11-13T00:33:33;5.40;99.90
14985;DHT22;7588;62.368;25.902;2022-11-13T00:36:07;5.40;99.90
14985;DHT22;7588;62.368;25.902;2022-11-13T00:38:34;5.30;99.90
14985;DHT22;7588;62.368;25.902;2022-11-13T00:41:00;5.30;99.90
14985;DHT22;7588;62.368;25.902;2022-11-13T00:43:26;5.30;99.90
14985;DHT22;7588;62.368;25.902;2022-11-13T00:45:52;5.30;99.90
14985;DHT22;7588;62.368;25.902;2022-11-13T00:48:18;5.20;99.90
14985;DHT22;7588;62.368;25.902;2022-11-13T00:50:44;5.10;99.90
14985;DHT22;7588;62.368;25.902;2022-11-13T00:53:10;5.10;99.90
14985;DHT22;7588;62.368;25.902;2022-11-13T00:55:36;5.00;99.90
14985;DHT22;7588;62.368;25.902;2022-11-13T00:58:02;5.00;99.90
14985;DHT22;7588;62.368;25.902;2022-11-13T01:00:32;5.00;99.90
14985;DHT22;7588;62.368;25.902;2022-11-13T01:02:58;5.00;99.90
14985;DHT22;7588;62.368;25.902;2022-11-13T01:05:25;5.10;99.90
14985;DHT22;7588;62.368;25.902;2022-11-13T01:07:51;5.00;99.90
14985;DHT22;7588;62.368;25.902;2022-11-13T01:10:20;4.90;99.90
14985;DHT22;7588;62.368;25.902;2022-11-13T01:12:45;4.90;99.90
14985;DHT22;7588;62.368;25.902;2022-11-13T01:15:11;4.90;99.90
14985;DHT22;7588;62.368;25.902;2022-11-13T01:17:37;4.90;99.90
14985;DHT22;7588;62.368;25.902;2022-11-13T01:20:04;4.90;99.90
14985;DHT22;7588;62.368;25.902;2022-11-13T01:22:30;4.80;99.90
14985;DHT22;7588;62.368;25.902;2022-11-13T01:24:55;4.80;99.90
14985;DHT22;7588;62.368;25.902;2022-11-13T01:27:21;4.90;99.90
14985;DHT22;7588;62.368;25.902;2022-11-13T01:29:47;4.80;99.90
14985;DHT22;7588;62.368;25.902;2022-11-13T01:32:13;4.80;99.90
14985;DHT22;7588;62.368;25.902;2022-11-13T01:34:38;4.80;99.90
14985;DHT22;7588;62.368;25.902;2022-11-13T01:37:04;4.60;99.90
14985;DHT22;7588;62.368;25.902;2022-11-13T01:39:30;4.60;99.90
14985;DHT22;7588;62.368;25.902;2022-11-13T01:41:56;4.50;99.90
14985;DHT22;7588;62.368;25.902;2022-11-13T01:44:22;4.40;99.90
14985;DHT22;7588;62.368;25.902;2022-11-13T01:46:50;4.50;99.90
14985;DHT22;7588;62.368;25.902;2022-11-13T01:51:59;4.40;99.90
14985;DHT22;7588;62.368;25.902;2022-11-13T01:54:31;4.40;99.90
14985;DHT22;7588;62.368;25.902;2022-11-13T01:56:58;4.40;99.90
14985;DHT22;7588;62.368;25.902;2022-11-13T01:59:33;4.40;99.90
14985;DHT22;7588;62.368;25.902;2022-11-13T02:02:00;4.30;99.90
14985;DHT22;7588;62.368;25.902;2022-11-13T02:04:27;4.30;99.90
14985;DHT22;7588;62.368;25.902;2022-11-13T02:07:00;4.30;99.90
14985;DHT22;7588;62.368;25.902;2022-11-13T02:09:34;4.30;99.90
14985;DHT22;7588;62.368;25.902;2022-11-13T02:12:01;4.30;99.90
14985;DHT22;7588;62.368;25.902;2022-11-13T02:14:28;4.30;99.90
14985;DHT22;7588;62.368;25.902;2022-11-13T02:16:58;4.20;99.90
14985;DHT22;7588;62.368;25.902;2022-11-13T02:19:33;4.20;99.90
14985;DHT22;7588;62.368;25.902;2022-11-13T02:22:06;4.20;99.90
14985;DHT22;7588;62.368;25.902;2022-11-13T02:24:39;4.10;99.90
14985;DHT22;7588;62.368;25.902;2022-11-13T02:27:07;4.00;99.90
14985;DHT22;7588;62.368;25.902;2022-11-13T02:29:35;4.10;99.90
14985;DHT22;7588;62.368;25.902;2022-11-13T02:32:01;4.10;99.90
14985;DHT22;7588;62.368;25.902;2022-11-13T02:34:27;4.10;99.90
14985;DHT22;7588;62.368;25.902;2022-11-13T02:36:52;4.10;99.90
14985;DHT22;7588;62.368;25.902;2022-11-13T02:39:18;4.10;99.90
14985;DHT22;7588;62.368;25.902;2022-11-13T02:41:44;4.10;99.90
14985;DHT22;7588;62.368;25.902;2022-11-13T02:44:10;4.10;99.90
14985;DHT22;7588;62.368;25.902;2022-11-13T02:46:36;4.00;99.90
14985;DHT22;7588;62.368;25.902;2022-11-13T02:49:02;4.00;99.90
14985;DHT22;7588;62.368;25.902;2022-11-13T02:51:28;4.00;99.90
14985;DHT22;7588;62.368;25.902;2022-11-13T02:53:54;4.10;99.90
14985;DHT22;7588;62.368;25.902;2022-11-13T02:56:20;4.10;99.90
14985;DHT22;7588;62.368;25.902;2022-11-13T02:58:46;4.10;99.90
14985;DHT22;7588;62.368;25.902;2022-11-13T03:01:12;4.20;99.90
14985;DHT22;7588;62.368;25.902;2022-11-13T03:03:38;4.10;99.90
14985;DHT22;7588;62.368;25.902;2022-11-13T03:06:03;4.10;99.90
14985;DHT22;7588;62.368;25.902;2022-11-13T03:08:29;4.20;99.90
14985;DHT22;7588;62.368;25.902;2022-11-13T03:10:56;4.10;99.90
14985;DHT22;7588;62.368;25.902;2022-11-13T03:13:22;4.10;99.90
14985;DHT22;7588;62.368;25.902;2022-11-13T03:15:47;4.20;99.90
14985;DHT22;7588;62.368;25.902;2022-11-13T03:18:13;4.20;99.90
14985;DHT22;7588;62.368;25.902;2022-11-13T03:20:41;4.10;99.90
14985;DHT22;7588;62.368;25.902;2022-11-13T03:23:07;4.00;99.90
14985;DHT22;7588;62.368;25.902;2022-11-13T03:25:33;4.00;99.90
14985;DHT22;7588;62.368;25.902;2022-11-13T03:27:59;4.00;99.90
14985;DHT22;7588;62.368;25.902;2022-11-13T03:30:26;4.00;99.90
14985;DHT22;7588;62.368;25.902;2022-11-13T03:32:53;4.00;99.90
14985;DHT22;7588;62.368;25.902;2022-11-13T03:35:21;4.00;99.90
14985;DHT22;7588;62.368;25.902;2022-11-13T03:37:46;4.00;99.90
14985;DHT22;7588;62.368;25.902;2022-11-13T03:40:12;4.00;99.90
14985;DHT22;7588;62.368;25.902;2022-11-13T03:42:38;4.00;99.90
14985;DHT22;7588;62.368;25.902;2022-11-13T03:45:04;4.00;99.90
14985;DHT22;7588;62.368;25.902;2022-11-13T03:47:30;3.90;99.90
14985;DHT22;7588;62.368;25.902;2022-11-13T03:49:56;3.90;99.90
14985;DHT22;7588;62.368;25.902;2022-11-13T03:52:22;3.80;99.90
14985;DHT22;7588;62.368;25.902;2022-11-13T03:54:47;3.80;99.90
14985;DHT22;7588;62.368;25.902;2022-11-13T03:57:14;3.70;99.90
14985;DHT22;7588;62.368;25.902;2022-11-13T03:59:39;3.80;99.90
14985;DHT22;7588;62.368;25.902;2022-11-13T04:02:05;3.80;99.90
14985;DHT22;7588;62.368;25.902;2022-11-13T04:04:31;3.80;99.90
14985;DHT22;7588;62.368;25.902;2022-11-13T04:06:59;3.80;99.90
14985;DHT22;7588;62.368;25.902;2022-11-13T04:09:25;3.80;99.90
14985;DHT22;7588;62.368;25.902;2022-11-13T04:11:51;3.70;99.90
14985;DHT22;7588;62.368;25.902;2022-11-13T04:14:16;3.70;99.90
14985;DHT22;7588;62.368;25.902;2022-11-13T04:16:42;3.70;99.90
14985;DHT22;7588;62.368;25.902;2022-11-13T04:19:08;3.70;99.90
14985;DHT22;7588;62.368;25.902;2022-11-13T04:21:33;3.70;99.90
14985;DHT22;7588;62.368;25.902;2022-11-13T04:23:59;3.70;99.90
14985;DHT22;7588;62.368;25.902;2022-11-13T04:26:25;3.70;99.90
14985;DHT22;7588;62.368;25.902;2022-11-13T04:28:51;3.60;99.90
14985;DHT22;7588;62.368;25.902;2022-11-13T04:31:16;3.60;99.90
14985;DHT22;7588;62.368;25.902;2022-11-13T04:33:42;3.60;99.90
14985;DHT22;7588;62.368;25.902;2022-11-13T04:36:08;3.60;99.90
14985;DHT22;7588;62.368;25.902;2022-11-13T04:38:33;3.50;99.90
14985;DHT22;7588;62.368;25.902;2022-11-13T04:40:59;3.60;99.90
14985;DHT22;7588;62.368;25.902;2022-11-13T04:43:43;3.50;99.90
14985;DHT22;7588;62.368;25.902;2022-11-13T04:46:09;3.50;99.90
14985;DHT22;7588;62.368;25.902;2022-11-13T04:48:35;3.50;99.90
14985;DHT22;7588;62.368;25.902;2022-11-13T04:51:00;3.50;99.90
14985;DHT22;7588;62.368;25.902;2022-11-13T04:53:26;3.40;99.90
14985;DHT22;7588;62.368;25.902;2022-11-13T04:55:52;3.30;99.90
14985;DHT22;7588;62.368;25.902;2022-11-13T04:58:18;3.30;99.90
14985;DHT22;7588;62.368;25.902;2022-11-13T05:00:44;3.30;99.90
14985;DHT22;7588;62.368;25.902;2022-11-13T05:03:10;3.30;99.90
14985;DHT22;7588;62.368;25.902;2022-11-13T05:05:35;3.20;99.90
14985;DHT22;7588;62.368;25.902;2022-11-13T05:08:01;3.10;99.90
14985;DHT22;7588;62.368;25.902;2022-11-13T05:10:27;3.10;99.90
14985;DHT22;7588;62.368;25.902;2022-11-13T05:12:55;3.10;99.90
14985;DHT22;7588;62.368;25.902;2022-11-13T05:15:21;3.00;99.90
14985;DHT22;7588;62.368;25.902;2022-11-13T05:17:50;3.00;99.90
14985;DHT22;7588;62.368;25.902;2022-11-13T05:20:16;2.90;99.90
14985;DHT22;7588;62.368;25.902;2022-11-13T05:22:42;3.00;99.90
14985;DHT22;7588;62.368;25.902;2022-11-13T05:25:07;3.10;99.90
14985;DHT22;7588;62.368;25.902;2022-11-13T05:27:33;3.10;99.90
14985;DHT22;7588;62.368;25.902;2022-11-13T05:29:59;3.10;99.90
14985;DHT22;7588;62.368;25.902;2022-11-13T05:32:24;3.00;99.90
14985;DHT22;7588;62.368;25.902;2022-11-13T05:34:50;2.90;99.90
14985;DHT22;7588;62.368;25.902;2022-11-13T05:37:16;2.90;99.90
14985;DHT22;7588;62.368;25.902;2022-11-13T05:39:42;2.80;99.90
14985;DHT22;7588;62.368;25.902;2022-11-13T05:42:07;2.80;99.90
14985;DHT22;7588;62.368;25.902;2022-11-13T05:44:33;2.90;99.90
14985;DHT22;7588;62.368;25.902;2022-11-13T05:46:59;2.80;99.90
14985;DHT22;7588;62.368;25.902;2022-11-13T05:49:25;2.70;99.90
14985;DHT22;7588;62.368;25.902;2022-11-13T05:51:53;2.80;99.90
14985;DHT22;7588;62.368;25.902;2022-11-13T05:54:19;2.70;99.90
14985;DHT22;7588;62.368;25.902;2022-11-13T05:56:44;2.70;99.90
14985;DHT22;7588;62.368;25.902;2022-11-13T05:59:10;2.60;99.90
14985;DHT22;7588;62.368;25.902;2022-11-13T06:01:38;2.60;99.90
14985;DHT22;7588;62.368;25.902;2022-11-13T06:04:05;2.50;99.90
14985;DHT22;7588;62.368;25.902;2022-11-13T06:06:32;2.40;99.90
14985;DHT22;7588;62.368;25.902;2022-11-13T06:08:59;2.30;99.90
14985;DHT22;7588;62.368;25.902;2022-11-13T06:11:27;2.30;99.90
14985;DHT22;7588;62.368;25.902;2022-11-13T06:13:54;2.20;99.90
14985;DHT22;7588;62.368;25.902;2022-11-13T06:16:22;2.10;99.90
14985;DHT22;7588;62.368;25.902;2022-11-13T06:18:49;2.10;99.90
14985;DHT22;7588;62.368;25.902;2022-11-13T06:21:21;1.90;99.90
14985;DHT22;7588;62.368;25.902;2022-11-13T06:23:47;1.80;99.90
14985;DHT22;7588;62.368;25.902;2022-11-13T06:26:23;1.80;99.90
14985;DHT22;7588;62.368;25.902;2022-11-13T06:28:49;1.70;99.90
14985;DHT22;7588;62.368;25.902;2022-11-13T06:31:18;1.70;99.90
14985;DHT22;7588;62.368;25.902;2022-11-13T06:33:44;1.60;99.90
14985;DHT22;7588;62.368;25.902;2022-11-13T06:36:16;1.60;99.90
14985;DHT22;7588;62.368;25.902;2022-11-13T06:38:42;1.50;99.90
14985;DHT22;7588;62.368;25.902;2022-11-13T06:41:11;1.60;99.90
14985;DHT22;7588;62.368;25.902;2022-11-13T06:43:37;1.80;99.90
14985;DHT22;7588;62.368;25.902;2022-11-13T06:46:05;1.80;99.90
14985;DHT22;7588;62.368;25.902;2022-11-13T06:48:32;1.70;99.90
14985;DHT22;7588;62.368;25.902;2022-11-13T06:51:05;1.70;99.90
14985;DHT22;7588;62.368;25.902;2022-11-13T06:53:32;1.60;99.90
14985;DHT22;7588;62.368;25.902;2022-11-13T06:55:58;1.60;99.90
14985;DHT22;7588;62.368;25.902;2022-11-13T06:58:24;1.50;99.90
14985;DHT22;7588;62.368;25.902;2022-11-13T07:00:51;1.60;99.90
14985;DHT22;7588;62.368;25.902;2022-11-13T07:03:17;1.60;99.90
14985;DHT22;7588;62.368;25.902;2022-11-13T07:05:43;1.60;99.90
14985;DHT22;7588;62.368;25.902;2022-11-13T07:08:10;1.80;99.90
14985;DHT22;7588;62.368;25.902;2022-11-13T07:10:36;1.90;99.90
14985;DHT22;7588;62.368;25.902;2022-11-13T07:13:02;2.00;99.90
14985;DHT22;7588;62.368;25.902;2022-11-13T07:15:27;2.10;99.90
14985;DHT22;7588;62.368;25.902;2022-11-13T07:17:53;2.20;99.90
14985;DHT22;7588;62.368;25.902;2022-11-13T07:20:19;2.20;99.90
14985;DHT22;7588;62.368;25.902;2022-11-13T07:22:44;2.10;99.90
14985;DHT22;7588;62.368;25.902;2022-11-13T07:25:10;2.10;99.90
14985;DHT22;7588;62.368;25.902;2022-11-13T07:27:36;2.10;99.90
14985;DHT22;7588;62.368;25.902;2022-11-13T07:30:02;2.10;99.90
14985;DHT22;7588;62.368;25.902;2022-11-13T07:32:27;2.20;99.90
14985;DHT22;7588;62.368;25.902;2022-11-13T07:34:53;2.30;99.90
14985;DHT22;7588;62.368;25.902;2022-11-13T07:37:19;2.30;99.90
14985;DHT22;7588;62.368;25.902;2022-11-13T07:39:44;2.30;99.90
14985;DHT22;7588;62.368;25.902;2022-11-13T07:42:10;2.40;99.90
14985;DHT22;7588;62.368;25.902;2022-11-13T07:44:36;2.40;99.90
14985;DHT22;7588;62.368;25.902;2022-11-13T07:47:02;2.40;99.90
14985;DHT22;7588;62.368;25.902;2022-11-13T07:49:27;2.50;99.90
14985;DHT22;7588;62.368;25.902;2022-11-13T07:51:53;2.60;99.90
14985;DHT22;7588;62.368;25.902;2022-11-13T07:54:19;2.60;99.90
14985;DHT22;7588;62.368;25.902;2022-11-13T07:56:44;2.60;99.90
14985;DHT22;7588;62.368;25.902;2022-11-13T07:59:12;2.60;99.90
14985;DHT22;7588;62.368;25.902;2022-11-13T08:01:37;2.60;99.90
14985;DHT22;7588;62.368;25.902;2022-11-13T08:04:03;2.70;99.90
14985;DHT22;7588;62.368;25.902;2022-11-13T08:06:29;2.60;99.90
14985;DHT22;7588;62.368;25.902;2022-11-13T08:08:54;2.70;99.90
14985;DHT22;7588;62.368;25.902;2022-11-13T08:11:20;2.80;99.90
14985;DHT22;7588;62.368;25.902;2022-11-13T08:13:46;2.80;99.90
14985;DHT22;7588;62.368;25.902;2022-11-13T08:16:12;2.90;99.90
14985;DHT22;7588;62.368;25.902;2022-11-13T08:18:37;2.90;99.90
14985;DHT22;7588;62.368;25.902;2022-11-13T08:21:04;2.90;99.90
14985;DHT22;7588;62.368;25.902;2022-11-13T08:23:31;2.90;99.90
14985;DHT22;7588;62.368;25.902;2022-11-13T08:25:57;3.00;99.90
14985;DHT22;7588;62.368;25.902;2022-11-13T08:28:23;2.90;99.90
14985;DHT22;7588;62.368;25.902;2022-11-13T08:30:49;3.00;99.90
14985;DHT22;7588;62.368;25.902;2022-11-13T08:33:15;2.90;99.90
14985;DHT22;7588;62.368;25.902;2022-11-13T08:35:40;3.00;99.90
14985;DHT22;7588;62.368;25.902;2022-11-13T08:38:07;3.00;99.90
14985;DHT22;7588;62.368;25.902;2022-11-13T08:40:34;3.00;99.90
14985;DHT22;7588;62.368;25.902;2022-11-13T08:43:03;3.10;99.90
14985;DHT22;7588;62.368;25.902;2022-11-13T08:45:30;3.20;99.90
14985;DHT22;7588;62.368;25.902;2022-11-13T08:48:03;3.30;99.90
14985;DHT22;7588;62.368;25.902;2022-11-13T08:50:31;3.20;99.90
14985;DHT22;7588;62.368;25.902;2022-11-13T08:52:58;3.20;99.90
14985;DHT22;7588;62.368;25.902;2022-11-13T08:55:24;3.30;99.90
14985;DHT22;7588;62.368;25.902;2022-11-13T08:57:50;3.30;99.90
14985;DHT22;7588;62.368;25.902;2022-11-13T09:00:17;3.40;99.90
14985;DHT22;7588;62.368;25.902;2022-11-13T09:02:43;3.40;99.90
14985;DHT22;7588;62.368;25.902;2022-11-13T09:05:09;3.50;99.90
14985;DHT22;7588;62.368;25.902;2022-11-13T09:07:35;3.50;99.90
14985;DHT22;7588;62.368;25.902;2022-11-13T09:10:01;3.50;99.90
14985;DHT22;7588;62.368;25.902;2022-11-13T09:12:27;3.50;99.90
14985;DHT22;7588;62.368;25.902;2022-11-13T09:14:53;3.40;99.90
14985;DHT22;7588;62.368;25.902;2022-11-13T09:17:18;3.60;99.90
14985;DHT22;7588;62.368;25.902;2022-11-13T09:19:44;3.50;99.90
14985;DHT22;7588;62.368;25.902;2022-11-13T09:22:10;3.60;99.90
14985;DHT22;7588;62.368;25.902;2022-11-13T09:24:36;3.60;99.90
14985;DHT22;7588;62.368;25.902;2022-11-13T09:27:02;3.70;99.90
14985;DHT22;7588;62.368;25.902;2022-11-13T09:29:28;3.80;99.90
14985;DHT22;7588;62.368;25.902;2022-11-13T09:31:54;3.80;99.90
14985;DHT22;7588;62.368;25.902;2022-11-13T09:34:20;3.80;99.90
14985;DHT22;7588;62.368;25.902;2022-11-13T09:36:47;3.80;99.90
14985;DHT22;7588;62.368;25.902;2022-11-13T09:39:13;3.90;99.90
14985;DHT22;7588;62.368;25.902;2022-11-13T09:44:35;4.00;99.90
14985;DHT22;7588;62.368;25.902;2022-11-13T09:47:26;4.00;99.90
14985;DHT22;7588;62.368;25.902;2022-11-13T09:52:39;4.10;99.90
14985;DHT22;7588;62.368;25.902;2022-11-13T09:55:13;4.10;99.90
14985;DHT22;7588;62.368;25.902;2022-11-13T09:58:06;4.20;99.90
14985;DHT22;7588;62.368;25.902;2022-11-13T10:00:36;4.30;99.90
14985;DHT22;7588;62.368;25.902;2022-11-13T10:03:26;4.30;99.90
14985;DHT22;7588;62.368;25.902;2022-11-13T10:13:45;4.70;99.90
14985;DHT22;7588;62.368;25.902;2022-11-13T10:18:50;4.80;99.90
14985;DHT22;7588;62.368;25.902;2022-11-13T10:21:28;4.80;99.90
14985;DHT22;7588;62.368;25.902;2022-11-13T10:23:56;5.00;99.90
14985;DHT22;7588;62.368;25.902;2022-11-13T10:26:24;5.20;99.90
14985;DHT22;7588;62.368;25.902;2022-11-13T10:29:07;5.20;99.90
14985;DHT22;7588;62.368;25.902;2022-11-13T10:34:07;5.20;99.90
14985;DHT22;7588;62.368;25.902;2022-11-13T10:39:09;5.20;99.90
14985;DHT22;7588;62.368;25.902;2022-11-13T10:41:49;5.10;99.90
14985;DHT22;7588;62.368;25.902;2022-11-13T10:44:25;5.10;99.90
14985;DHT22;7588;62.368;25.902;2022-11-13T10:47:14;5.00;99.90
14985;DHT22;7588;62.368;25.902;2022-11-13T10:49:41;5.00;99.90
14985;DHT22;7588;62.368;25.902;2022-11-13T10:52:26;5.00;99.90
14985;DHT22;7588;62.368;25.902;2022-11-13T10:55:22;5.10;99.90
14985;DHT22;7588;62.368;25.902;2022-11-13T10:58:01;5.10;99.90
14985;DHT22;7588;62.368;25.902;2022-11-13T11:00:34;5.10;99.90
14985;DHT22;7588;62.368;25.902;2022-11-13T11:03:00;5.00;99.90
14985;DHT22;7588;62.368;25.902;2022-11-13T11:05:27;5.10;99.90
14985;DHT22;7588;62.368;25.902;2022-11-13T11:07:55;5.00;99.90
14985;DHT22;7588;62.368;25.902;2022-11-13T11:10:35;5.10;99.90
14985;DHT22;7588;62.368;25.902;2022-11-13T11:13:07;5.00;99.90
14985;DHT22;7588;62.368;25.902;2022-11-13T11:15:53;5.00;99.90
14985;DHT22;7588;62.368;25.902;2022-11-13T11:18:29;5.00;99.90
14985;DHT22;7588;62.368;25.902;2022-11-13T11:20:58;4.90;99.90
14985;DHT22;7588;62.368;25.902;2022-11-13T11:26:44;5.10;99.90
14985;DHT22;7588;62.368;25.902;2022-11-13T11:29:16;5.10;99.90
14985;DHT22;7588;62.368;25.902;2022-11-13T11:34:55;5.00;99.90
14985;DHT22;7588;62.368;25.902;2022-11-13T11:37:32;5.00;99.90
14985;DHT22;7588;62.368;25.902;2022-11-13T11:43:38;4.90;99.90
14985;DHT22;7588;62.368;25.902;2022-11-13T11:45:42;4.90;99.90
14985;DHT22;7588;62.368;25.902;2022-11-13T11:48:21;4.80;99.90
14985;DHT22;7588;62.368;25.902;2022-11-13T11:58:58;4.80;99.90
14985;DHT22;7588;62.368;25.902;2022-11-13T12:02:00;4.80;99.90
14985;DHT22;7588;62.368;25.902;2022-11-13T12:12:43;4.70;99.90
14985;DHT22;7588;62.368;25.902;2022-11-13T12:23:36;4.70;99.90
14985;DHT22;7588;62.368;25.902;2022-11-13T12:26:22;4.60;99.90
14985;DHT22;7588;62.368;25.902;2022-11-13T12:34:10;4.60;99.90
14985;DHT22;7588;62.368;25.902;2022-11-13T12:36:40;4.60;99.90
14985;DHT22;7588;62.368;25.902;2022-11-13T12:40:05;4.60;99.90
14985;DHT22;7588;62.368;25.902;2022-11-13T12:42:20;4.60;99.90
14985;DHT22;7588;62.368;25.902;2022-11-13T12:45:08;4.60;99.90
14985;DHT22;7588;62.368;25.902;2022-11-13T12:47:36;4.70;99.90
14985;DHT22;7588;62.368;25.902;2022-11-13T12:50:24;4.60;99.90
14985;DHT22;7588;62.368;25.902;2022-11-13T12:53:00;4.70;99.90
14985;DHT22;7588;62.368;25.902;2022-11-13T12:55:29;4.60;99.90
14985;DHT22;7588;62.368;25.902;2022-11-13T12:58:07;4.70;99.90
14985;DHT22;7588;62.368;25.902;2022-11-13T13:00:34;4.60;99.90
14985;DHT22;7588;62.368;25.902;2022-11-13T13:08:41;4.50;99.90
14985;DHT22;7588;62.368;25.902;2022-11-13T13:11:41;4.50;99.90
14985;DHT22;7588;62.368;25.902;2022-11-13T13:17:23;4.30;99.90
14985;DHT22;7588;62.368;25.902;2022-11-13T13:22:35;4.50;99.90
14985;DHT22;7588;62.368;25.902;2022-11-13T13:25:06;4.50;99.90
14985;DHT22;7588;62.368;25.902;2022-11-13T13:27:36;4.50;99.90
14985;DHT22;7588;62.368;25.902;2022-11-13T13:30:20;4.40;99.90
14985;DHT22;7588;62.368;25.902;2022-11-13T13:38:45;4.30;99.90
14985;DHT22;7588;62.368;25.902;2022-11-13T13:41:24;4.20;99.90
14985;DHT22;7588;62.368;25.902;2022-11-13T13:46:42;4.20;99.90
14985;DHT22;7588;62.368;25.902;2022-11-13T13:49:14;4.20;99.90
14985;DHT22;7588;62.368;25.902;2022-11-13T13:51:43;4.20;99.90
14985;DHT22;7588;62.368;25.902;2022-11-13T13:54:16;4.10;99.90
14985;DHT22;7588;62.368;25.902;2022-11-13T13:56:43;4.10;99.90
14985;DHT22;7588;62.368;25.902;2022-11-13T13:59:39;4.10;99.90
14985;DHT22;7588;62.368;25.902;2022-11-13T14:02:17;4.10;99.90
14985;DHT22;7588;62.368;25.902;2022-11-13T14:04:46;4.10;99.90
14985;DHT22;7588;62.368;25.902;2022-11-13T14:09:47;4.10;99.90
14985;DHT22;7588;62.368;25.902;2022-11-13T14:12:20;4.20;99.90
14985;DHT22;7588;62.368;25.902;2022-11-13T14:14:46;4.20;99.90
14985;DHT22;7588;62.368;25.902;2022-11-13T14:17:21;4.20;99.90
14985;DHT22;7588;62.368;25.902;2022-11-13T14:19:52;4.20;99.90
14985;DHT22;7588;62.368;25.902;2022-11-13T14:22:19;4.10;99.90
14985;DHT22;7588;62.368;25.902;2022-11-13T14:24:51;4.00;99.90
14985;DHT22;7588;62.368;25.902;2022-11-13T14:27:21;4.00;99.90
14985;DHT22;7588;62.368;25.902;2022-11-13T14:30:00;3.90;99.90
14985;DHT22;7588;62.368;25.902;2022-11-13T14:32:37;3.90;99.90
14985;DHT22;7588;62.368;25.902;2022-11-13T14:35:04;3.90;99.90
14985;DHT22;7588;62.368;25.902;2022-11-13T14:37:38;3.90;99.90
14985;DHT22;7588;62.368;25.902;2022-11-13T14:42:56;3.90;99.90
14985;DHT22;7588;62.368;25.902;2022-11-13T14:45:24;3.80;99.90
14985;DHT22;7588;62.368;25.902;2022-11-13T14:48:00;3.80;99.90
14985;DHT22;7588;62.368;25.902;2022-11-13T14:50:35;3.80;99.90
14985;DHT22;7588;62.368;25.902;2022-11-13T14:53:07;3.80;99.90
14985;DHT22;7588;62.368;25.902;2022-11-13T14:55:36;3.90;99.90
14985;DHT22;7588;62.368;25.902;2022-11-13T14:58:03;3.80;99.90
14985;DHT22;7588;62.368;25.902;2022-11-13T15:00:35;3.80;99.90
14985;DHT22;7588;62.368;25.902;2022-11-13T15:03:03;3.80;99.90
14985;DHT22;7588;62.368;25.902;2022-11-13T15:05:29;3.80;99.90
14985;DHT22;7588;62.368;25.902;2022-11-13T15:07:55;3.80;99.90
14985;DHT22;7588;62.368;25.902;2022-11-13T15:10:24;3.80;99.90
14985;DHT22;7588;62.368;25.902;2022-11-13T15:12:51;3.80;99.90
14985;DHT22;7588;62.368;25.902;2022-11-13T15:15:19;3.90;99.90
14985;DHT22;7588;62.368;25.902;2022-11-13T15:17:46;4.10;99.90
14985;DHT22;7588;62.368;25.902;2022-11-13T15:20:26;4.00;99.90
14985;DHT22;7588;62.368;25.902;2022-11-13T15:22:54;3.90;99.90
14985;DHT22;7588;62.368;25.902;2022-11-13T15:25:22;3.90;99.90
14985;DHT22;7588;62.368;25.902;2022-11-13T15:27:49;3.80;99.90
14985;DHT22;7588;62.368;25.902;2022-11-13T15:30:15;3.80;99.90
14985;DHT22;7588;62.368;25.902;2022-11-13T15:32:41;3.80;99.90
14985;DHT22;7588;62.368;25.902;2022-11-13T15:35:16;3.70;99.90
14985;DHT22;7588;62.368;25.902;2022-11-13T15:37:42;3.70;99.90
14985;DHT22;7588;62.368;25.902;2022-11-13T15:40:10;3.70;99.90
14985;DHT22;7588;62.368;25.902;2022-11-13T15:42:36;3.70;99.90
14985;DHT22;7588;62.368;25.902;2022-11-13T15:45:03;3.70;99.90
14985;DHT22;7588;62.368;25.902;2022-11-13T15:47:33;3.70;99.90
14985;DHT22;7588;62.368;25.902;2022-11-13T15:50:01;3.70;99.90
14985;DHT22;7588;62.368;25.902;2022-11-13T15:52:30;3.70;99.90
14985;DHT22;7588;62.368;25.902;2022-11-13T15:54:57;3.70;99.90
14985;DHT22;7588;62.368;25.902;2022-11-13T15:57:25;3.70;99.90
14985;DHT22;7588;62.368;25.902;2022-11-13T15:59:50;3.70;99.90
14985;DHT22;7588;62.368;25.902;2022-11-13T16:02:16;3.70;99.90
14985;DHT22;7588;62.368;25.902;2022-11-13T16:04:43;3.70;99.90
14985;DHT22;7588;62.368;25.902;2022-11-13T16:09:38;3.60;99.90
14985;DHT22;7588;62.368;25.902;2022-11-13T16:12:03;3.60;99.90
14985;DHT22;7588;62.368;25.902;2022-11-13T16:14:29;3.60;99.90
14985;DHT22;7588;62.368;25.902;2022-11-13T16:16:55;3.60;99.90
14985;DHT22;7588;62.368;25.902;2022-11-13T16:19:24;3.60;99.90
14985;DHT22;7588;62.368;25.902;2022-11-13T16:21:50;3.60;99.90
14985;DHT22;7588;62.368;25.902;2022-11-13T16:24:16;3.50;99.90
14985;DHT22;7588;62.368;25.902;2022-11-13T16:26:49;3.60;99.90
14985;DHT22;7588;62.368;25.902;2022-11-13T16:29:20;3.60;99.90
14985;DHT22;7588;62.368;25.902;2022-11-13T16:31:46;3.60;99.90
14985;DHT22;7588;62.368;25.902;2022-11-13T16:34:12;3.70;99.90
14985;DHT22;7588;62.368;25.902;2022-11-13T16:36:38;3.70;99.90
14985;DHT22;7588;62.368;25.902;2022-11-13T16:39:05;3.70;99.90
14985;DHT22;7588;62.368;25.902;2022-11-13T16:41:31;3.70;99.90
14985;DHT22;7588;62.368;25.902;2022-11-13T16:43:57;3.70;99.90
14985;DHT22;7588;62.368;25.902;2022-11-13T16:46:29;3.60;99.90
14985;DHT22;7588;62.368;25.902;2022-11-13T16:48:56;3.50;99.90
14985;DHT22;7588;62.368;25.902;2022-11-13T16:51:21;3.50;99.90
14985;DHT22;7588;62.368;25.902;2022-11-13T16:53:47;3.40;99.90
14985;DHT22;7588;62.368;25.902;2022-11-13T16:56:22;3.40;99.90
14985;DHT22;7588;62.368;25.902;2022-11-13T16:58:54;3.40;99.90
14985;DHT22;7588;62.368;25.902;2022-11-13T17:01:20;3.40;99.90
14985;DHT22;7588;62.368;25.902;2022-11-13T17:03:49;3.30;99.90
14985;DHT22;7588;62.368;25.902;2022-11-13T17:06:27;3.30;99.90
14985;DHT22;7588;62.368;25.902;2022-11-13T17:08:55;3.20;99.90
14985;DHT22;7588;62.368;25.902;2022-11-13T17:11:25;3.20;99.90
14985;DHT22;7588;62.368;25.902;2022-11-13T17:13:52;3.20;99.90
14985;DHT22;7588;62.368;25.902;2022-11-13T17:16:19;3.20;99.90
14985;DHT22;7588;62.368;25.902;2022-11-13T17:18:46;3.10;99.90
14985;DHT22;7588;62.368;25.902;2022-11-13T17:21:21;3.10;99.90
14985;DHT22;7588;62.368;25.902;2022-11-13T17:23:47;3.20;99.90
14985;DHT22;7588;62.368;25.902;2022-11-13T17:26:13;3.20;99.90
14985;DHT22;7588;62.368;25.902;2022-11-13T17:28:38;3.20;99.90